createdAt,value
2018-12-12T00:01:56.977Z,5.61
2018-12-12T00:04:27.741Z,5.60
2018-12-12T00:06:56.700Z,5.58
2018-12-12T00:09:25.519Z,5.55
2018-12-12T00:11:54.481Z,5.55
2018-12-12T00:14:23.364Z,5.59
2018-12-12T00:16:52.199Z,5.64
2018-12-12T00:19:21.288Z,5.66
2018-12-12T00:21:50.154Z,5.68
2018-12-12T00:24:19.042Z,5.71
2018-12-12T00:26:47.924Z,5.72
2018-12-12T00:29:16.817Z,5.75
2018-12-12T00:31:45.708Z,5.77
2018-12-12T00:34:14.581Z,5.79
2018-12-12T00:36:43.495Z,5.81
2018-12-12T00:39:12.372Z,5.82
2018-12-12T00:41:41.213Z,5.80
2018-12-12T00:44:10.157Z,5.79
2018-12-12T00:46:39.254Z,5.77
2018-12-12T00:49:08.238Z,5.77
2018-12-12T00:51:37.320Z,5.79
2018-12-12T00:54:06.233Z,5.80
2018-12-12T00:56:35.048Z,5.82
2018-12-12T00:59:04.133Z,5.82
2018-12-12T01:01:32.976Z,5.83
2018-12-12T01:04:01.818Z,5.84
2018-12-12T01:06:30.636Z,5.84
2018-12-12T01:08:59.580Z,5.83
2018-12-12T01:11:33.790Z,5.83
2018-12-12T01:14:02.763Z,5.85
2018-12-12T01:16:31.669Z,5.86
2018-12-12T01:19:00.558Z,5.83
2018-12-12T01:21:30.696Z,5.82
2018-12-12T01:23:59.573Z,5.82
2018-12-12T01:26:28.472Z,5.79
2018-12-12T01:28:57.352Z,5.75
2018-12-12T01:31:26.228Z,5.75
2018-12-12T01:33:56.057Z,5.76
2018-12-12T01:36:25.157Z,5.77
2018-12-12T01:38:54.003Z,5.77
2018-12-12T01:41:22.830Z,5.75
2018-12-12T01:43:51.835Z,5.77
2018-12-12T01:46:20.709Z,5.76
2018-12-12T01:48:49.553Z,5.77
2018-12-12T01:51:18.388Z,5.80
2018-12-12T01:53:48.682Z,5.81
2018-12-12T01:56:17.607Z,5.81
2018-12-12T01:58:46.529Z,5.80
2018-12-12T02:01:15.352Z,5.80
2018-12-12T02:03:44.277Z,5.82
2018-12-12T02:06:13.164Z,5.83
2018-12-12T02:08:42.000Z,5.84
2018-12-12T02:11:10.868Z,5.83
2018-12-12T02:13:39.765Z,5.83
2018-12-12T02:16:09.501Z,5.83
2018-12-12T02:18:40.624Z,5.81
2018-12-12T02:21:09.548Z,5.82
2018-12-12T02:23:38.356Z,5.84
2018-12-12T02:26:07.261Z,5.86
2018-12-12T02:28:36.153Z,5.86
2018-12-12T02:31:04.968Z,5.86
2018-12-12T02:33:33.821Z,5.87
2018-12-12T02:36:02.816Z,5.88
2018-12-12T02:38:31.642Z,5.89
2018-12-12T02:41:00.606Z,5.92
2018-12-12T02:43:29.525Z,5.94
2018-12-12T02:45:58.355Z,5.96
2018-12-12T02:48:27.598Z,5.98
2018-12-12T02:50:56.482Z,5.98
2018-12-12T02:53:25.313Z,5.99
2018-12-12T02:55:54.128Z,6.01
2018-12-12T02:58:22.945Z,6.01
2018-12-12T03:00:51.820Z,5.99
2018-12-12T03:03:20.710Z,6.00
2018-12-12T03:05:49.601Z,5.99
2018-12-12T03:08:18.484Z,5.95
2018-12-12T03:10:47.510Z,5.95
2018-12-12T03:13:16.472Z,5.93
2018-12-12T03:15:45.825Z,5.92
2018-12-12T03:18:14.782Z,5.93
2018-12-12T03:20:43.652Z,5.92
2018-12-12T03:23:12.556Z,5.92
2018-12-12T03:25:41.441Z,5.94
2018-12-12T03:28:10.344Z,5.97
2018-12-12T03:30:39.158Z,5.98
2018-12-12T03:33:08.118Z,5.97
2018-12-12T03:35:37.114Z,5.95
2018-12-12T03:38:06.013Z,5.92
2018-12-12T03:40:35.785Z,5.92
2018-12-12T03:43:04.936Z,5.93
2018-12-12T03:45:33.790Z,5.95
2018-12-12T03:48:02.770Z,5.95
2018-12-12T03:50:31.669Z,5.95
2018-12-12T03:53:00.632Z,5.96
2018-12-12T03:55:29.559Z,5.99
2018-12-12T03:57:58.463Z,6.00
2018-12-12T04:00:27.334Z,6.01
2018-12-12T04:02:56.301Z,6.01
2018-12-12T04:05:25.074Z,6.04
2018-12-12T04:07:53.912Z,6.05
2018-12-12T04:10:22.793Z,6.06
2018-12-12T04:12:51.709Z,6.05
2018-12-12T04:15:20.681Z,6.05
2018-12-12T04:17:49.697Z,6.04
2018-12-12T04:20:18.565Z,6.05
2018-12-12T04:22:47.549Z,6.05
2018-12-12T04:25:17.070Z,6.07
2018-12-12T04:27:45.946Z,6.07
2018-12-12T04:30:14.953Z,6.09
2018-12-12T04:32:43.820Z,6.08
2018-12-12T04:35:12.628Z,6.08
2018-12-12T04:37:41.670Z,6.07
2018-12-12T04:40:10.509Z,6.08
2018-12-12T04:42:39.400Z,6.08
2018-12-12T04:45:08.429Z,6.07
2018-12-12T04:47:37.273Z,6.07
2018-12-12T04:50:06.585Z,6.07
2018-12-12T04:52:35.493Z,6.05
2018-12-12T04:55:04.575Z,6.03
2018-12-12T04:57:34.498Z,5.98
2018-12-12T05:00:03.686Z,6.03
2018-12-12T05:02:32.765Z,6.05
2018-12-12T05:05:01.655Z,6.05
2018-12-12T05:07:31.572Z,6.07
2018-12-12T05:10:00.469Z,6.09
2018-12-12T05:12:29.362Z,6.09
2018-12-12T05:14:58.413Z,6.07
2018-12-12T05:17:27.356Z,6.05
2018-12-12T05:19:56.245Z,6.06
2018-12-12T05:22:25.124Z,6.07
2018-12-12T05:24:54.069Z,6.09
2018-12-12T05:27:22.917Z,6.10
2018-12-12T05:29:51.785Z,6.12
2018-12-12T05:32:20.700Z,6.11
2018-12-12T05:34:49.591Z,6.10
2018-12-12T05:37:18.479Z,6.10
2018-12-12T05:39:47.428Z,6.11
2018-12-12T05:42:16.249Z,6.11
2018-12-12T05:44:45.145Z,6.08
2018-12-12T05:47:13.965Z,6.09
2018-12-12T05:49:42.883Z,6.08
2018-12-12T05:52:13.626Z,6.07
2018-12-12T05:54:42.564Z,6.08
2018-12-12T05:57:11.465Z,6.07
2018-12-12T05:59:40.322Z,6.06
2018-12-12T06:02:09.216Z,6.06
2018-12-12T06:04:38.088Z,6.07
2018-12-12T06:07:07.123Z,6.07
2018-12-12T06:09:35.981Z,6.08
2018-12-12T06:12:05.460Z,6.07
2018-12-12T06:14:34.390Z,6.06
2018-12-12T06:17:05.224Z,6.06
2018-12-12T06:19:34.316Z,6.06
2018-12-12T06:22:03.447Z,6.06
2018-12-12T06:24:32.481Z,6.09
2018-12-12T06:27:01.321Z,6.09
2018-12-12T06:29:30.200Z,6.10
2018-12-12T06:31:59.070Z,6.11
2018-12-12T06:34:28.037Z,6.10
2018-12-12T06:36:56.950Z,6.12
2018-12-12T06:39:25.986Z,6.13
2018-12-12T06:41:54.939Z,6.14
2018-12-12T06:44:24.349Z,6.14
2018-12-12T06:46:53.328Z,6.12
2018-12-12T06:49:22.156Z,6.12
2018-12-12T06:51:51.013Z,6.12
2018-12-12T06:54:20.009Z,6.10
2018-12-12T06:56:48.997Z,6.11
2018-12-12T06:59:17.896Z,6.09
2018-12-12T07:01:46.708Z,6.08
2018-12-12T07:04:15.634Z,6.05
2018-12-12T07:06:44.600Z,6.04
2018-12-12T07:09:13.456Z,6.03
2018-12-12T07:11:42.332Z,6.02
2018-12-12T07:14:11.222Z,6.01
2018-12-12T07:16:40.125Z,6.00
2018-12-12T07:19:09.005Z,6.00
2018-12-12T07:21:38.016Z,6.03
2018-12-12T07:24:06.838Z,6.05
2018-12-12T07:26:35.745Z,6.06
2018-12-12T07:29:04.773Z,6.06
2018-12-12T07:31:33.665Z,6.07
2018-12-12T07:34:02.558Z,6.08
2018-12-12T07:36:31.441Z,6.08
2018-12-12T07:39:00.341Z,6.08
2018-12-12T07:41:29.464Z,6.09
2018-12-12T07:44:00.269Z,6.08
2018-12-12T07:46:47.056Z,6.06
2018-12-12T07:49:21.802Z,6.06
2018-12-12T07:52:12.302Z,6.04
2018-12-12T07:54:41.356Z,6.02
2018-12-12T07:57:10.234Z,5.96
2018-12-12T07:59:39.092Z,5.91
2018-12-12T08:02:08.086Z,5.86
2018-12-12T08:04:36.898Z,5.82
2018-12-12T08:07:05.756Z,5.73
2018-12-12T08:09:35.854Z,5.63
2018-12-12T08:12:04.980Z,5.58
2018-12-12T08:14:34.009Z,5.56
2018-12-12T08:17:03.497Z,5.58
2018-12-12T08:19:32.350Z,5.61
2018-12-12T08:22:01.289Z,5.63
2018-12-12T08:24:30.129Z,5.66
2018-12-12T08:26:59.034Z,5.72
2018-12-12T08:29:27.857Z,5.77
2018-12-12T08:31:56.705Z,5.81
2018-12-12T08:34:26.921Z,5.87
2018-12-12T08:36:55.800Z,5.93
2018-12-12T08:39:24.704Z,5.98
2018-12-12T08:41:53.520Z,6.01
2018-12-12T08:44:22.357Z,6.06
2018-12-12T08:46:51.177Z,6.10
2018-12-12T08:49:20.062Z,6.16
2018-12-12T08:51:48.946Z,6.21
2018-12-12T08:54:17.838Z,6.24
2018-12-12T08:56:46.753Z,6.27
2018-12-12T08:59:15.628Z,6.28
2018-12-12T09:01:45.305Z,6.32
2018-12-12T09:04:14.226Z,6.35
2018-12-12T09:06:43.036Z,6.38
2018-12-12T09:09:12.933Z,6.39
2018-12-12T09:11:41.858Z,6.43
2018-12-12T09:14:10.781Z,6.44
2018-12-12T09:16:44.424Z,6.46
2018-12-12T09:19:13.397Z,6.49
2018-12-12T09:21:42.400Z,6.51
2018-12-12T09:24:11.216Z,6.55
2018-12-12T09:26:40.103Z,6.56
2018-12-12T09:29:08.956Z,6.57
2018-12-12T09:31:39.909Z,6.61
2018-12-12T09:34:10.781Z,6.60
2018-12-12T09:36:39.613Z,6.62
2018-12-12T09:39:08.631Z,6.64
2018-12-12T09:41:40.339Z,6.65
2018-12-12T09:44:09.208Z,6.67
2018-12-12T09:46:38.193Z,6.68
2018-12-12T09:49:08.137Z,6.69
2018-12-12T09:51:38.957Z,6.70
2018-12-12T09:54:09.741Z,6.73
2018-12-12T09:56:38.581Z,6.72
2018-12-12T09:59:07.525Z,6.75
2018-12-12T10:01:36.409Z,6.78
2018-12-12T10:04:06.053Z,6.79
2018-12-12T10:06:35.009Z,6.83
2018-12-12T10:09:05.928Z,6.85
2018-12-12T10:11:35.864Z,6.88
2018-12-12T10:14:04.864Z,6.91
2018-12-12T10:16:33.736Z,6.96
2018-12-12T10:19:02.640Z,6.97
2018-12-12T10:21:31.545Z,7.00
2018-12-12T10:24:00.424Z,7.04
2018-12-12T10:26:29.916Z,7.05
2018-12-12T10:28:58.900Z,7.10
2018-12-12T10:31:27.885Z,7.10
2018-12-12T10:33:56.766Z,7.12
2018-12-12T10:36:25.784Z,7.15
2018-12-12T10:38:54.896Z,7.21
2018-12-12T10:41:24.385Z,7.29
2018-12-12T10:43:53.384Z,7.32
2018-12-12T10:46:22.753Z,7.39
2018-12-12T10:48:52.192Z,7.44
2018-12-12T10:51:21.168Z,7.48
2018-12-12T10:53:50.074Z,7.52
2018-12-12T10:56:18.957Z,7.58
2018-12-12T10:58:47.854Z,7.65
2018-12-12T11:01:22.174Z,7.68
2018-12-12T11:03:51.045Z,7.69
2018-12-12T11:06:19.945Z,7.71
2018-12-12T11:08:48.826Z,7.76
2018-12-12T11:11:17.764Z,7.81
2018-12-12T11:13:46.624Z,7.88
2018-12-12T11:16:15.447Z,8.00
2018-12-12T11:18:44.392Z,8.10
2018-12-12T11:21:13.441Z,8.10
2018-12-12T11:23:42.405Z,8.06
2018-12-12T11:26:11.277Z,8.07
2018-12-12T11:28:40.169Z,8.06
2018-12-12T11:31:09.049Z,8.02
2018-12-12T11:33:37.945Z,8.02
2018-12-12T11:36:06.928Z,8.08
2018-12-12T11:38:35.839Z,8.12
2018-12-12T11:41:04.861Z,8.17
2018-12-12T11:43:33.721Z,8.26
2018-12-12T11:46:02.596Z,8.36
2018-12-12T11:48:31.500Z,8.45
2018-12-12T11:51:00.394Z,8.56
2018-12-12T11:53:29.385Z,8.63
2018-12-12T11:55:58.624Z,8.60
2018-12-12T11:58:27.435Z,8.59
2018-12-12T12:00:56.246Z,8.67
2018-12-12T12:03:25.148Z,8.75
2018-12-12T12:05:53.985Z,8.76
2018-12-12T12:08:22.830Z,8.68
2018-12-12T12:10:51.646Z,8.64
2018-12-12T12:13:22.548Z,8.63
2018-12-12T12:15:51.374Z,8.62
2018-12-12T12:18:20.337Z,8.59
2018-12-12T12:20:49.237Z,8.69
2018-12-12T12:23:18.146Z,8.73
2018-12-12T12:25:46.998Z,8.70
2018-12-12T12:28:16.248Z,8.71
2018-12-12T12:30:45.072Z,8.70
2018-12-12T12:33:13.964Z,8.76
2018-12-12T12:35:42.870Z,8.86
2018-12-12T12:38:11.745Z,8.96
2018-12-12T12:40:40.657Z,9.10
2018-12-12T12:43:09.529Z,9.18
2018-12-12T12:45:38.353Z,9.35
2018-12-12T12:48:07.261Z,9.49
2018-12-12T12:50:36.226Z,9.64
2018-12-12T12:53:05.105Z,9.79
2018-12-12T12:55:33.990Z,9.92
2018-12-12T12:58:02.990Z,9.94
2018-12-12T13:00:31.894Z,9.85
2018-12-12T13:03:00.760Z,9.75
2018-12-12T13:05:29.664Z,9.64
2018-12-12T13:07:58.502Z,9.47
2018-12-12T13:10:27.457Z,9.32
2018-12-12T13:12:56.569Z,9.22
2018-12-12T13:15:25.881Z,9.10
2018-12-12T13:17:54.717Z,8.95
2018-12-12T13:20:23.521Z,8.82
2018-12-12T13:22:52.394Z,8.70
2018-12-12T13:25:21.211Z,8.59
2018-12-12T13:27:50.082Z,8.53
2018-12-12T13:30:19.045Z,8.57
2018-12-12T13:32:47.971Z,8.59
2018-12-12T13:35:16.873Z,8.59
2018-12-12T13:37:45.737Z,8.54
2018-12-12T13:40:14.553Z,8.49
2018-12-12T13:42:43.420Z,8.46
2018-12-12T13:45:12.320Z,8.50
2018-12-12T13:47:41.204Z,8.61
2018-12-12T13:50:10.212Z,8.74
2018-12-12T13:52:39.218Z,8.83
2018-12-12T13:55:08.316Z,8.83
2018-12-12T13:57:37.144Z,8.81
2018-12-12T14:00:06.387Z,8.75
2018-12-12T14:02:35.264Z,8.70
2018-12-12T14:05:05.182Z,8.66
2018-12-12T14:07:34.083Z,8.59
2018-12-12T14:10:03.975Z,8.55
2018-12-12T14:12:33.897Z,8.49
2018-12-12T14:15:02.803Z,8.43
2018-12-12T14:17:31.621Z,8.38
2018-12-12T14:20:00.461Z,8.31
2018-12-12T14:22:29.280Z,8.26
2018-12-12T14:24:58.092Z,8.20
2018-12-12T14:27:27.032Z,8.10
2018-12-12T14:29:55.917Z,8.07
2018-12-12T14:32:24.773Z,8.02
2018-12-12T14:34:53.824Z,7.98
2018-12-12T14:37:22.768Z,7.96
2018-12-12T14:39:51.676Z,7.94
2018-12-12T14:42:20.613Z,7.92
2018-12-12T14:44:49.586Z,7.88
2018-12-12T14:47:18.456Z,7.85
2018-12-12T14:49:47.357Z,7.84
2018-12-12T14:52:16.177Z,7.83
2018-12-12T14:54:45.021Z,7.82
2018-12-12T14:57:13.824Z,7.81
2018-12-12T14:59:42.706Z,7.81
2018-12-12T15:02:11.597Z,7.81
2018-12-12T15:04:40.491Z,7.80
2018-12-12T15:07:09.401Z,7.76
2018-12-12T15:09:39.082Z,7.70
2018-12-12T15:12:08.109Z,7.64
2018-12-12T15:14:37.106Z,7.59
2018-12-12T15:17:06.014Z,7.52
2018-12-12T15:19:34.865Z,7.44
2018-12-12T15:22:03.858Z,7.37
2018-12-12T15:24:32.733Z,7.30
2018-12-12T15:27:01.634Z,7.23
2018-12-12T15:29:30.618Z,7.17
2018-12-12T15:31:59.444Z,7.14
2018-12-12T15:34:28.261Z,7.09
2018-12-12T15:36:58.185Z,7.03
2018-12-12T15:39:27.050Z,7.00
2018-12-12T15:41:55.874Z,6.97
2018-12-12T15:44:24.693Z,6.96
2018-12-12T15:46:53.727Z,6.92
2018-12-12T15:49:22.577Z,6.91
2018-12-12T15:51:51.552Z,6.87
2018-12-12T15:54:20.385Z,6.79
2018-12-12T15:56:49.325Z,6.73
2018-12-12T15:59:18.268Z,6.67
2018-12-12T16:01:47.481Z,6.62
2018-12-12T16:04:16.405Z,6.61
2018-12-12T16:06:45.297Z,6.57
2018-12-12T16:09:14.430Z,6.56
2018-12-12T16:11:43.380Z,6.54
2018-12-12T16:14:15.065Z,6.50
2018-12-12T16:16:44.045Z,6.48
2018-12-12T16:19:13.631Z,6.43
2018-12-12T16:21:42.654Z,6.41
2018-12-12T16:24:11.520Z,6.35
2018-12-12T16:26:40.389Z,6.33
2018-12-12T16:29:09.262Z,6.31
2018-12-12T16:31:38.130Z,6.25
2018-12-12T16:34:07.022Z,6.23
2018-12-12T16:36:39.007Z,6.25
2018-12-12T16:39:08.636Z,6.22
2018-12-12T16:41:37.557Z,6.19
2018-12-12T16:44:06.566Z,6.18
2018-12-12T16:46:52.742Z,6.17
2018-12-12T16:49:21.856Z,6.19
2018-12-12T16:51:50.729Z,6.19
2018-12-12T16:54:20.462Z,6.18
2018-12-12T16:56:49.523Z,6.18
2018-12-12T16:59:18.357Z,6.17
2018-12-12T17:01:47.214Z,6.14
2018-12-12T17:04:16.138Z,6.12
2018-12-12T17:06:44.981Z,6.11
2018-12-12T17:09:14.012Z,6.10
2018-12-12T17:11:42.877Z,6.08
2018-12-12T17:14:11.772Z,6.02
2018-12-12T17:16:40.589Z,5.99
2018-12-12T17:19:09.448Z,5.95
2018-12-12T17:21:38.377Z,5.96
2018-12-12T17:24:08.053Z,5.92
2018-12-12T17:26:36.941Z,5.87
2018-12-12T17:29:05.949Z,5.82
2018-12-12T17:31:34.824Z,5.80
2018-12-12T17:34:03.817Z,5.81
2018-12-12T17:36:32.632Z,5.77
2018-12-12T17:39:01.461Z,5.73
2018-12-12T17:41:32.140Z,5.72
2018-12-12T17:44:01.001Z,5.71
2018-12-12T17:46:30.112Z,5.69
2018-12-12T17:48:58.995Z,5.72
2018-12-12T17:51:27.877Z,5.70
2018-12-12T17:53:56.772Z,5.68
2018-12-12T17:56:25.590Z,5.67
2018-12-12T17:58:54.549Z,5.64
2018-12-12T18:01:23.462Z,5.61
2018-12-12T18:03:54.313Z,5.58
2018-12-12T18:06:28.807Z,5.56
2018-12-12T18:08:57.700Z,5.54
2018-12-12T18:11:26.581Z,5.53
2018-12-12T18:13:55.488Z,5.53
2018-12-12T18:19:35.561Z,5.53
2018-12-12T18:22:04.423Z,5.53
2018-12-12T18:24:35.245Z,5.52
2018-12-12T18:27:04.241Z,5.51
2018-12-12T18:29:33.089Z,5.52
2018-12-12T18:32:04.138Z,5.51
2018-12-12T18:34:54.734Z,5.48
2018-12-12T18:37:23.818Z,5.47
2018-12-12T18:39:52.687Z,5.53
2018-12-12T18:42:23.566Z,5.54
2018-12-12T18:44:54.557Z,5.49
2018-12-12T18:47:23.394Z,5.47
2018-12-12T18:49:52.302Z,5.45
2018-12-12T18:52:23.793Z,5.43
2018-12-12T18:54:52.685Z,5.42
2018-12-12T18:57:23.997Z,5.43
2018-12-12T18:59:52.966Z,5.42
2018-12-12T19:02:21.842Z,5.37
2018-12-12T19:07:46.296Z,5.25
2018-12-12T19:13:15.670Z,5.22
2018-12-12T19:18:43.829Z,5.16
2018-12-12T19:21:12.706Z,5.18
2018-12-12T19:23:51.796Z,5.21
2018-12-12T19:40:06.941Z,5.54
2018-12-12T19:46:08.926Z,5.63
2018-12-12T19:52:01.792Z,5.70
2018-12-12T19:54:41.235Z,5.73
2018-12-12T19:57:17.498Z,5.74
2018-12-12T20:03:21.740Z,5.78
2018-12-12T20:09:21.472Z,5.82
2018-12-12T20:15:11.475Z,5.86
2018-12-12T20:17:51.115Z,5.86
2018-12-12T20:20:37.311Z,5.84
2018-12-12T20:23:14.292Z,5.82
2018-12-12T20:25:55.837Z,5.83
2018-12-12T20:28:35.411Z,5.86
2018-12-12T20:31:12.398Z,5.88
2018-12-12T20:33:49.067Z,5.89
2018-12-12T20:36:27.986Z,5.89
2018-12-12T20:39:07.540Z,5.90
2018-12-12T20:41:56.592Z,5.91
2018-12-12T20:44:38.893Z,5.91
2018-12-12T20:47:21.405Z,5.93
2018-12-12T20:49:58.591Z,5.96
2018-12-12T20:52:34.443Z,5.97
2018-12-12T20:55:11.218Z,5.99
2018-12-12T20:57:48.171Z,6.02
2018-12-12T21:00:30.088Z,6.05
2018-12-12T21:03:05.947Z,6.07
2018-12-12T21:11:57.807Z,6.10
2018-12-12T21:17:42.500Z,6.12
2018-12-12T21:23:22.512Z,6.15
2018-12-12T21:25:51.668Z,6.17
2018-12-12T21:28:20.506Z,6.16
2018-12-12T21:30:49.388Z,6.15
2018-12-12T21:33:18.199Z,6.15
2018-12-12T21:35:47.192Z,6.16
2018-12-12T21:38:16.012Z,6.16
2018-12-12T21:40:44.949Z,6.18
2018-12-12T21:43:13.856Z,6.18
2018-12-12T21:45:42.769Z,6.19
2018-12-12T21:48:11.727Z,6.19
2018-12-12T21:50:40.612Z,6.21
2018-12-12T21:53:09.496Z,6.21
2018-12-12T21:55:38.364Z,6.22
2018-12-12T21:58:07.197Z,6.21
2018-12-12T22:00:36.176Z,6.22
2018-12-12T22:03:05.072Z,6.23
2018-12-12T22:05:33.952Z,6.23
2018-12-12T22:08:02.773Z,6.24
2018-12-12T22:10:32.554Z,6.24
2018-12-12T22:13:01.472Z,6.24
2018-12-12T22:15:31.029Z,6.24
2018-12-12T22:17:59.908Z,6.25
2018-12-12T22:20:28.774Z,6.26
2018-12-12T22:22:58.088Z,6.27
2018-12-12T22:25:27.133Z,6.26
2018-12-12T22:27:56.031Z,6.27
2018-12-12T22:30:24.839Z,6.26
2018-12-12T22:32:53.925Z,6.25
2018-12-12T22:35:22.724Z,6.25
2018-12-12T22:37:52.296Z,6.25
2018-12-12T22:40:21.156Z,6.23
2018-12-12T22:42:51.838Z,6.24
2018-12-12T22:45:21.063Z,6.25
2018-12-12T22:47:50.825Z,6.24
2018-12-12T22:50:20.046Z,6.24
2018-12-12T22:52:48.930Z,6.23
2018-12-12T22:55:17.809Z,6.23
2018-12-12T22:57:46.817Z,6.23
2018-12-12T23:00:21.076Z,6.21
2018-12-12T23:02:51.973Z,6.21
2018-12-12T23:05:20.847Z,6.19
2018-12-12T23:07:49.729Z,6.15
2018-12-12T23:10:18.561Z,6.13
2018-12-12T23:12:47.420Z,6.08
2018-12-12T23:15:16.405Z,6.03
2018-12-12T23:17:45.245Z,5.96
2018-12-12T23:20:15.215Z,5.89
2018-12-12T23:22:44.102Z,5.84
2018-12-12T23:25:12.986Z,5.79
2018-12-12T23:27:41.899Z,5.74
2018-12-12T23:30:11.323Z,5.68
2018-12-12T23:32:40.122Z,5.60
2018-12-12T23:35:10.095Z,5.54
2018-12-12T23:37:38.973Z,5.48
2018-12-12T23:40:07.913Z,5.43
2018-12-12T23:42:36.866Z,5.37
2018-12-12T23:45:06.176Z,5.31
2018-12-12T23:47:35.018Z,5.25
2018-12-12T23:50:04.061Z,5.20
2018-12-12T23:52:33.869Z,5.17
2018-12-12T23:55:05.201Z,5.15
2018-12-12T23:57:34.113Z,5.12
